Latest Coastal Weather Observations for Wilsons Promontory

IDT60701

Issued at 10:32 am EST Sunday 31 July 2016 (issued every 10 minutes, with the page automatically refreshed every 10 minutes)

About coastal observations | Map of coastal stations | Coastal observations for TAS | Marine services | Other Formats
Station Details ID: 085096 Name: WILSONS PROMONTORY LIGHTHOUSE Lat: -39.13 Lon: 146.42 Height: 95.0 m
Data from the previous 72 hours. | See also: Recent months at Wilsons Promontory
Date/Time
EST
Temp
°C
Wind Pressure Rain since
9am
mm
Weather Cloud Vis
km
Sea
Height
m
Swell
Dir  Spd
kts
Gust
kts
hPa Trend Height
m
Period
s
Dir
31/10:30am 12.4 W 24 31 1013.4 - 0.0 - - - - - - -
31/10:00am 12.3 W 23 29 1013.2 - 0.0 - - - - - - -
31/09:48am 12.2 W 19 29 1013.1 - 0.0 - - - - - - -
31/09:30am 12.1 W 21 30 1013.2 - 0.0 - - - - - - -
31/09:00am 11.4 W 25 35 1012.5 - 4.2 - - - - - - -
31/08:36am 11.6 W 25 38 1012.3 - 4.2 - - - - - - -
31/08:30am 11.7 W 24 33 1012.1 - 4.2 - - - - - - -
31/08:00am 11.8 W 22 35 1011.4 - 4.2 - - - - - - -
31/07:30am 11.1 W 23 35 1011.3 - 4.2 - - - - - - -
31/07:00am 11.3 W 26 36 1010.9 - 4.0 - - - - - - -
31/06:30am 11.1 W 25 37 1010.9 - 1.4 - - - - - - -
31/06:00am 11.6 WNW 24 41 1009.9 - 0.2 - - - - - - -
31/05:30am 11.7 WNW 29 44 1009.6 - 0.2 - - - - - - -
31/05:00am 11.6 WNW 30 44 1009.2 - 0.2 - - - - - - -
31/04:30am 11.6 WNW 30 51 1009.0 - 0.2 - - - - - - -
31/04:00am 11.3 WNW 34 50 1008.5 - 0.2 - - - - - - -
31/03:56am 11.3 W 38 50 1008.3 - 0.2 - - - - - - -
31/03:30am 11.8 WNW 26 46 1008.7 - 0.2 - - - - - - -
31/03:21am 12.2 WNW 20 42 1008.6 - 0.2 - - - - - - -
31/03:00am 12.0 NNW 15 45 1009.0 - 0.2 - - - - - - -
31/02:53am 11.9 W 17 45 1008.6 - 0.2 - - - - - - -
31/02:30am 12.9 NW 16 34 1009.1 - 0.0 - - - - - - -
31/02:29am 12.9 NW 15 34 1008.8 - 0.0 - - - - - - -
31/02:22am 12.9 NNW 9 38 1008.9 - 0.0 - - - - - - -
31/02:19am 13.0 W 20 38 1008.5 - 0.0 - - - - - - -
31/02:18am 12.9 NW 15 34 1008.8 - 0.0 - - - - - - -
31/02:00am 12.9 NNW 9 29 1008.7 - 0.0 - - - - - - -
31/01:31am 13.1 NNW 15 35 1008.7 - 0.0 - - - - - - -
31/01:30am 13.1 N 11 35 1008.9 - 0.0 - - - - - - -
31/01:27am 13.2 WNW 15 35 1008.9 - 0.0 - - - - - - -
31/01:00am 13.2 N 9 34 1009.1 - 0.0 - - - - - - -
31/12:30am 13.3 WNW 17 41 1009.3 - 0.0 - - - - - - -
31/12:27am 13.3 WNW 21 41 1009.3 - 0.0 - - - - - - -
31/12:00am 13.5 NNW 18 38 1010.0 - 0.0 - - - - - - -
 
Date/Time
EST
Temp
°C
Wind Pressure Rain since
9am
mm
Weather Cloud Vis
km
Sea
Height
m
Swell
Dir  Spd
kts
Gust
kts
hPa Trend Height
m
Period
s
Dir
30/11:49pm 13.6 NNW 18 42 1009.6 - 0.0 - - - - - - -
30/11:30pm 13.6 NNW 15 31 1010.1 - 0.0 - - - - - - -
30/11:00pm 13.5 NNW 21 42 1010.2 - 0.0 - - - - - - -
30/10:30pm 13.1 NNW 22 44 1010.8 - 0.0 - - - - - - -
30/10:00pm 12.8 NNW 18 39 1011.3 - 0.0 - - - - - - -
30/09:30pm 13.5 NNW 22 40 1010.9 - 0.0 - - - - - - -
30/09:00pm 13.7 NNW 22 37 1011.0 - 0.0 - - - - - - -
30/08:30pm 13.2 N 15 32 1011.8 - 0.0 - - - - - - -
30/08:29pm 13.2 N 15 27 1011.9 - 0.0 - - - - - - -
30/08:00pm 13.1 NNW 6 13 1012.7 - 0.0 - - - - - - -
30/07:30pm 13.1 N 7 17 1013.0 - 0.0 - - - - - - -
30/07:00pm 12.8 N 11 19 1013.1 - 0.0 - - - - - - -
30/06:30pm 11.3 NNE 7 9 1013.5 - 0.0 - - - - - - -
30/06:00pm 11.4 NNE 7 9 1013.9 - 0.0 - - - - - - -
30/05:30pm 11.5 NNE 8 9 1013.8 - 0.0 - - - - - - -
30/05:00pm 11.6 NNE 8 9 1013.9 - 0.0 - - - - - - -
30/04:30pm 11.9 NNE 8 11 1014.1 - 0.0 - - - - - - -
30/04:00pm 12.1 NNE 9 12 1014.4 - 0.0 - - - - - - -
30/03:30pm 13.0 NE 8 13 1014.5 - 0.0 - - - - - - -
30/03:00pm 14.0 N 6 13 1014.8 - 0.0 - - - - - - -
30/02:30pm 13.6 ENE 4 12 1014.9 - 0.0 - - - - - - -
30/02:00pm 13.5 ENE 2 11 1015.7 - 0.0 - - - - - - -
30/01:30pm 13.5 W 2 8 1016.4 - 0.0 - - - - - - -
30/01:00pm 13.8 WSW 3 8 1017.0 - 0.0 - - - - - - -
30/12:30pm 14.2 N 2 6 1017.3 - 0.0 - - - - - - -
30/12:00pm 13.3 NNW 8 13 1017.8 - 0.0 - - - - - - -
30/11:30am 12.5 N 4 9 1018.5 - 0.0 - - - - - - -
30/11:00am 12.6 SW 3 11 1019.2 - 0.0 - - - - - - -
30/10:30am 12.0 NW 7 16 1019.6 - 0.0 - - - - - - -
30/10:00am 12.0 NNW 5 11 1019.7 - 0.0 - - - - - - -
30/09:30am 11.6 ENE 1 7 1019.9 - 0.0 - - - - - - -
30/09:00am 11.3 NNW 8 13 1019.9 - 7.0 - - - - - - -
30/08:30am 10.4 NNW 6 9 1019.8 - 7.0 - - - - - - -
30/08:00am 10.5 N 8 13 1020.1 - 7.0 - - - - - - -
30/07:30am 10.5 NW 8 11 1020.1 - 7.0 - - - - - - -
30/07:00am 10.3 NW 7 9 1020.1 - 7.0 - - - - - - -
30/06:30am 10.2 WNW 9 11 1020.1 - 7.0 - - - - - - -
30/06:00am 10.4 W 7 9 1020.0 - 7.0 - - - - - - -
30/05:30am 10.4 W 7 11 1019.8 - 7.0 - - - - - - -
30/05:00am 10.2 W 9 13 1019.5 - 7.0 - - - - - - -
30/04:30am 10.9 WSW 12 18 1019.2 - 7.0 - - - - - - -
30/04:00am 11.0 W 10 18 1019.4 - 7.0 - - - - - - -
30/03:30am 11.1 W 9 14 1019.3 - 7.0 - - - - - - -
30/03:00am 11.1 W 13 20 1019.3 - 7.0 - - - - - - -
30/02:30am 10.6 W 13 17 1019.5 - 7.0 - - - - - - -
30/02:00am 10.3 W 13 19 1019.6 - 7.0 - - - - - - -
30/01:46am 10.4 W 14 19 1019.5 - 7.0 - - - - - - -
30/01:30am 10.7 WSW 24 29 1019.3 - 7.0 - - - - - - -
30/01:00am 11.2 WSW 29 33 1018.6 - 7.0 - - - - - - -
30/12:49am 11.4 W 21 32 1018.6 - 7.0 - - - - - - -
30/12:30am 11.2 WSW 22 28 1018.7 - 7.0 - - - - - - -
30/12:00am 11.2 WSW 24 29 1018.8 - 7.0 - - - - - - -
 
Date/Time
EST
Temp
°C
Wind Pressure Rain since
9am
mm
Weather Cloud Vis
km
Sea
Height
m
Swell
Dir  Spd
kts
Gust
kts
hPa Trend Height
m
Period
s
Dir
29/11:38pm 11.4 WSW 32 34 1018.6 - 7.0 - - - - - - -
29/11:32pm 11.5 W 21 31 1018.7 - 7.0 - - - - - - -
29/11:30pm 11.5 W 21 29 1018.7 - 7.0 - - - - - - -
29/11:16pm 11.5 W 23 34 1018.5 - 7.0 - - - - - - -
29/11:00pm 11.5 W 22 29 1018.4 - 7.0 - - - - - - -
29/10:33pm 11.6 W 21 32 1018.2 - 7.0 - - - - - - -
29/10:30pm 11.8 W 21 27 1018.2 - 7.0 - - - - - - -
29/10:19pm 11.7 W 22 32 1018.2 - 7.0 - - - - - - -
29/10:00pm 11.7 W 25 32 1018.0 - 7.0 - - - - - - -
29/09:40pm 11.9 W 26 36 1017.7 - 7.0 - - - - - - -
29/09:30pm 11.8 W 25 34 1017.6 - 7.0 - - - - - - -
29/09:07pm 12.0 W 26 36 1017.3 - 7.0 - - - - - - -
29/09:00pm 11.9 W 27 36 1017.2 - 7.0 - - - - - - -
29/08:30pm 11.9 W 28 38 1017.0 - 7.0 - - - - - - -
29/08:00pm 12.1 W 29 39 1016.8 - 7.0 - - - - - - -
29/07:30pm 12.1 W 27 41 1016.6 - 7.0 - - - - - - -
29/07:00pm 12.4 W 28 41 1015.8 - 7.0 - - - - - - -
29/06:30pm 12.4 W 28 41 1015.2 - 7.0 - - - - - - -
29/06:00pm 12.1 W 28 43 1015.1 - 7.0 - - - - - - -
29/05:30pm 12.1 W 28 44 1014.7 - 7.0 - - - - - - -
29/05:00pm 12.1 W 29 42 1014.2 - 7.0 - - - - - - -
29/04:30pm 12.0 W 29 43 1014.4 - 7.0 - - - - - - -
29/04:00pm 11.8 W 30 41 1014.2 - 7.0 - - - - - - -
29/03:30pm 12.3 W 31 48 1013.5 - 7.0 - - - - - - -
29/03:00pm 12.0 W 31 48 1013.5 - 7.0 - - - - - - -
29/02:30pm 12.1 W 31 52 1013.7 - 6.8 - - - - - - -
29/02:00pm 12.0 W 33 45 1013.2 - 6.2 - - - - - - -
29/01:30pm 11.6 W 28 43 1013.8 - 5.8 - - - - - - -
29/01:25pm 11.5 W 30 43 1013.7 - 5.4 - - - - - - -
29/01:19pm 11.5 W 19 48 1014.0 - 4.6 - - - - - - -
29/01:00pm 11.6 W 31 47 1013.9 - 4.2 - - - - - - -
29/12:57pm 11.7 W 33 47 1013.9 - 4.2 - - - - - - -
29/12:52pm 11.7 W 21 42 1014.4 - 4.2 - - - - - - -
29/12:30pm 11.5 W 35 48 1014.0 - 4.2 - - - - - - -
29/12:00pm 10.9 W 26 42 1014.5 - 4.2 - - - - - - -
29/11:30am 10.8 W 27 45 1015.1 - 3.2 - - - - - - -
29/11:00am 11.0 W 28 45 1015.1 - 2.0 - - - - - - -
29/10:30am 10.9 W 26 39 1014.9 - 1.6 - - - - - - -
29/10:00am 11.0 W 29 48 1015.1 - 1.6 - - - - - - -
29/09:41am 10.7 W 28 51 1014.9 - 1.6 - - - - - - -
29/09:30am 10.7 W 25 40 1015.6 - 1.0 - - - - - - -
29/09:00am 10.8 WNW 27 45 1015.5 - 7.2 - - - - - - -
29/08:30am 11.2 WNW 32 51 1015.1 - 7.0 - - - - - - -
29/08:00am 11.0 WNW 31 49 1014.7 - 6.8 - - - - - - -
29/07:30am 10.7 W 29 47 1015.0 - 6.8 - - - - - - -
29/07:00am 10.9 WNW 32 50 1015.3 - 6.8 - - - - - - -
29/06:30am 11.2 W 26 47 1015.1 - 6.8 - - - - - - -
29/06:00am 10.9 WNW 27 47 1015.0 - 6.8 - - - - - - -
29/05:30am 10.6 WNW 30 43 1014.9 - 6.8 - - - - - - -
29/05:13am 10.6 WNW 34 46 1015.4 - 6.6 - - - - - - -
29/05:10am 10.8 WNW 39 46 1014.5 - 6.6 - - - - - - -
29/05:00am 10.9 WNW 25 41 1015.1 - 6.6 - - - - - - -
29/04:30am 10.5 WNW 25 46 1015.4 - 6.6 - - - - - - -
29/04:00am 10.5 WNW 30 45 1014.7 - 6.6 - - - - - - -
29/03:30am 10.8 WNW 29 55 1015.3 - 6.6 - - - - - - -
29/03:00am 10.9 WNW 30 52 1015.8 - 6.6 - - - - - - -
29/02:30am 10.9 WNW 32 48 1015.7 - 6.6 - - - - - - -
29/02:27am 10.9 WNW 28 49 1016.0 - 6.6 - - - - - - -
29/02:12am 11.1 WNW 40 51 1015.3 - 6.6 - - - - - - -
29/02:00am 11.0 WNW 27 46 1015.5 - 6.6 - - - - - - -
29/01:30am 11.2 W 27 49 1015.4 - 6.6 - - - - - - -
29/01:00am 11.4 W 30 50 1015.6 - 6.6 - - - - - - -
29/12:30am 11.7 W 29 46 1015.8 - 6.6 - - - - - - -
29/12:00am 11.4 W 30 57 1015.8 - 6.6 - - - - - - -
 
Date/Time
EST
Temp
°C
Wind Pressure Rain since
9am
mm
Weather Cloud Vis
km
Sea
Height
m
Swell
Dir  Spd
kts
Gust
kts
hPa Trend Height
m
Period
s
Dir
28/11:51pm 11.5 W 30 57 1015.6 - 6.6 - - - - - - -
28/11:30pm 11.1 W 28 43 1016.1 - 6.4 - - - - - - -
28/11:00pm 11.0 W 26 49 1016.7 - 6.2 - - - - - - -
28/10:30pm 11.0 W 29 45 1016.6 - 5.6 - - - - - - -
28/10:00pm 11.6 W 30 49 1016.8 - 5.6 - - - - - - -
28/09:30pm 11.5 WNW 26 40 1017.6 - 5.6 - - - - - - -
28/09:00pm 11.2 W 23 40 1018.1 - 5.6 - - - - - - -
28/08:30pm 11.2 W 24 43 1018.5 - 5.6 - - - - - - -
28/08:00pm 11.7 WNW 21 37 1018.5 - 4.0 - - - - - - -
28/07:30pm 11.5 W 23 34 1018.3 - 4.0 - - - - - - -
28/07:00pm 11.9 W 27 41 1018.1 - 3.0 - - - - - - -
28/06:30pm 11.9 W 31 50 1017.0 - 3.0 - - - - - - -
28/06:00pm 11.8 W 35 55 1017.2 - 3.0 - - - - - - -
28/05:54pm 11.7 W 40 55 1016.8 - 3.0 - - - - - - -
28/05:30pm 11.7 W 29 46 1017.3 - 3.0 - - - - - - -
28/05:00pm 11.4 W 33 47 1016.9 - 2.8 - - - - - - -
28/04:30pm 11.7 W 28 47 1016.9 - 2.4 - - - - - - -
28/04:00pm 11.8 W 29 47 1016.7 - 2.4 - - - - - - -
28/03:45pm 11.7 W 21 40 1017.0 - 2.4 - - - - - - -
28/03:30pm 11.6 W 32 46 1016.7 - 2.4 - - - - - - -
28/03:00pm 11.4 W 35 54 1015.9 - 2.4 - - - - - - -
28/02:30pm 11.5 W 31 46 1015.9 - 2.4 - - - - - - -
28/02:00pm 11.5 W 33 50 1016.1 - 2.4 - - - - - - -
28/01:30pm 10.8 W 35 49 1015.9 - 2.4 - - - - - - -
28/01:05pm 10.7 W 37 53 1016.0 - 2.0 - - - - - - -
28/01:00pm 10.7 W 25 46 1016.8 - 2.0 - - - - - - -
28/12:59pm 10.7 W 24 47 1016.8 - 2.0 - - - - - - -
28/12:30pm 10.9 W 34 57 1016.3 - 1.4 - - - - - - -
28/12:28pm 10.7 W 34 57 1016.3 - 1.4 - - - - - - -
28/12:00pm 10.8 W 32 46 1016.8 - 1.2 - - - - - - -
28/11:30am 10.8 W 32 46 1017.4 - 1.2 - - - - - - -
28/11:00am 11.0 W 32 51 1016.9 - 0.8 - - - - - - -

Other Formats:

Comma delimited format used in spreadsheet applications
http://www.bom.gov.au/fwo/IDT60701/IDT60701.94893.axf

JavaScript Object Notation format (JSON) in row-major order
http://www.bom.gov.au/fwo/IDT60701/IDT60701.94893.json